createdAt,value
2018-09-25T00:01:39.270Z,102414.58
2018-09-25T00:03:50.547Z,102412.40
2018-09-25T00:06:01.915Z,102416.39
2018-09-25T00:08:13.749Z,102417.27
2018-09-25T00:10:25.051Z,102422.08
2018-09-25T00:12:36.031Z,102419.85
2018-09-25T00:14:47.237Z,102423.35
2018-09-25T00:16:58.533Z,102422.52
2018-09-25T00:19:09.892Z,102416.88
2018-09-25T00:21:21.788Z,102421.81
2018-09-25T00:23:32.941Z,102418.80
2018-09-25T00:25:44.667Z,102427.17
2018-09-25T00:27:55.978Z,102427.28
2018-09-25T00:30:07.234Z,102426.05
2018-09-25T00:32:18.607Z,102415.64
2018-09-25T00:34:29.789Z,102413.54
2018-09-25T00:36:40.942Z,102414.39
2018-09-25T00:38:52.170Z,102414.83
2018-09-25T00:41:03.272Z,102420.98
2018-09-25T00:43:14.831Z,102417.93
2018-09-25T00:45:26.007Z,102419.75
2018-09-25T00:47:37.083Z,102423.77
2018-09-25T00:49:48.255Z,102423.36
2018-09-25T00:52:00.014Z,102428.20
2018-09-25T00:54:12.170Z,102421.69
2018-09-25T00:56:23.483Z,102426.52
2018-09-25T00:58:34.655Z,102424.40
2018-09-25T01:00:45.976Z,102420.96
2018-09-25T01:02:57.325Z,102422.77
2018-09-25T01:05:08.600Z,102415.77
2018-09-25T01:07:19.943Z,102426.28
2018-09-25T01:09:31.213Z,102423.66
2018-09-25T01:11:42.610Z,102423.69
2018-09-25T01:13:54.275Z,102426.73
2018-09-25T01:16:05.676Z,102423.73
2018-09-25T01:18:16.855Z,102423.30
2018-09-25T01:20:28.171Z,102421.59
2018-09-25T01:22:39.827Z,102420.30
2018-09-25T01:24:51.121Z,102423.37
2018-09-25T01:27:02.439Z,102422.45
2018-09-25T01:29:13.621Z,102427.25
2018-09-25T01:31:24.823Z,102420.75
2018-09-25T01:33:36.173Z,102422.05
2018-09-25T01:35:47.729Z,102414.17
2018-09-25T01:37:58.874Z,102421.59
2018-09-25T01:40:10.095Z,102420.75
2018-09-25T01:42:21.728Z,102418.56
2018-09-25T01:44:33.621Z,102416.77
2018-09-25T01:46:44.734Z,102421.12
2018-09-25T01:48:55.962Z,102424.64
2018-09-25T01:51:07.157Z,102419.85
2018-09-25T01:53:18.763Z,102413.75
2018-09-25T01:55:30.047Z,102413.33
2018-09-25T01:57:41.910Z,102418.14
2018-09-25T01:59:53.315Z,102421.22
2018-09-25T02:02:04.634Z,102425.56
2018-09-25T02:04:15.853Z,102419.89
2018-09-25T02:06:27.035Z,102428.19
2018-09-25T02:08:38.270Z,102419.02
2018-09-25T02:10:49.356Z,102425.11
2018-09-25T02:13:00.549Z,102427.73
2018-09-25T02:15:11.996Z,102423.36
2018-09-25T02:17:23.289Z,102420.31
2018-09-25T02:19:34.723Z,102415.48
2018-09-25T02:21:45.836Z,102416.36
2018-09-25T02:23:57.207Z,102420.24
2018-09-25T02:26:08.671Z,102421.12
2018-09-25T02:28:21.489Z,102423.28
2018-09-25T02:30:32.688Z,102419.35
2018-09-25T02:32:44.132Z,102424.16
2018-09-25T02:34:55.794Z,102426.80
2018-09-25T02:37:06.985Z,102430.70
2018-09-25T02:39:18.147Z,102432.89
2018-09-25T02:41:29.224Z,102440.33
2018-09-25T02:43:40.498Z,102431.58
2018-09-25T02:45:52.314Z,102437.30
2018-09-25T02:48:03.865Z,102435.16
2018-09-25T02:50:15.108Z,102439.11
2018-09-25T02:52:26.652Z,102439.97
2018-09-25T02:54:37.880Z,102435.59
2018-09-25T02:56:49.080Z,102443.90
2018-09-25T02:59:00.362Z,102443.48
2018-09-25T03:01:11.932Z,102442.60
2018-09-25T03:03:23.520Z,102443.91
2018-09-25T03:05:34.772Z,102438.67
2018-09-25T03:07:46.020Z,102437.34
2018-09-25T03:09:57.152Z,102444.33
2018-09-25T03:12:08.400Z,102443.45
2018-09-25T03:14:19.717Z,102444.77
2018-09-25T03:16:31.101Z,102439.95
2018-09-25T03:18:42.386Z,102439.55
2018-09-25T03:20:53.703Z,102437.80
2018-09-25T03:23:05.035Z,102440.41
2018-09-25T03:25:17.706Z,102442.59
2018-09-25T03:27:29.032Z,102453.06
2018-09-25T03:29:40.928Z,102443.91
2018-09-25T03:31:52.823Z,102441.30
2018-09-25T03:34:04.220Z,102439.13
2018-09-25T03:36:15.507Z,102448.72
2018-09-25T03:38:26.878Z,102446.10
2018-09-25T03:40:38.231Z,102449.62
2018-09-25T03:42:49.595Z,102449.18
2018-09-25T03:45:00.863Z,102453.95
2018-09-25T03:47:12.327Z,102451.78
2018-09-25T03:49:23.536Z,102454.39
2018-09-25T03:51:34.714Z,102446.56
2018-09-25T03:53:46.556Z,102454.85
2018-09-25T03:55:58.128Z,102448.28
2018-09-25T03:58:09.479Z,102449.59
2018-09-25T04:00:20.513Z,102458.33
2018-09-25T04:02:31.812Z,102459.21
2018-09-25T04:04:43.082Z,102459.64
2018-09-25T04:06:54.354Z,102459.64
2018-09-25T04:09:06.346Z,102457.00
2018-09-25T04:11:17.623Z,102456.97
2018-09-25T04:13:28.884Z,102459.57
2018-09-25T04:15:40.104Z,102461.70
2018-09-25T04:17:51.362Z,102466.53
2018-09-25T04:20:03.299Z,102474.39
2018-09-25T04:22:15.070Z,102474.84
2018-09-25T04:24:26.384Z,102477.91
2018-09-25T04:26:37.802Z,102479.21
2018-09-25T04:28:49.797Z,102486.63
2018-09-25T04:31:01.212Z,102484.02
2018-09-25T04:33:12.612Z,102487.94
2018-09-25T04:35:23.801Z,102490.54
2018-09-25T04:37:35.132Z,102487.50
2018-09-25T04:39:46.418Z,102484.84
2018-09-25T04:41:57.623Z,102486.59
2018-09-25T04:44:08.883Z,102489.19
2018-09-25T04:46:20.161Z,102494.41
2018-09-25T04:48:31.732Z,102497.00
2018-09-25T04:50:42.945Z,102491.77
2018-09-25T04:52:54.331Z,102501.78
2018-09-25T04:55:05.804Z,102506.52
2018-09-25T04:57:17.315Z,102503.88
2018-09-25T04:59:28.819Z,102512.97
2018-09-25T05:01:40.125Z,102516.42
2018-09-25T05:03:51.912Z,102515.56
2018-09-25T05:06:03.067Z,102516.89
2018-09-25T05:08:14.460Z,102520.85
2018-09-25T05:10:26.513Z,102515.63
2018-09-25T05:12:37.939Z,102523.03
2018-09-25T05:14:48.989Z,102530.02
2018-09-25T05:17:00.671Z,102522.20
2018-09-25T05:19:12.472Z,102524.38
2018-09-25T05:21:23.813Z,102526.55
2018-09-25T05:23:35.194Z,102521.75
2018-09-25T05:25:46.596Z,102530.88
2018-09-25T05:27:57.903Z,102530.89
2018-09-25T05:30:09.279Z,102529.57
2018-09-25T05:32:20.653Z,102526.95
2018-09-25T05:34:32.519Z,102532.63
2018-09-25T05:36:43.921Z,102536.13
2018-09-25T05:38:55.164Z,102531.30
2018-09-25T05:41:07.111Z,102528.64
2018-09-25T05:43:18.404Z,102533.88
2018-09-25T05:45:29.668Z,102534.33
2018-09-25T05:47:41.107Z,102538.67
2018-09-25T05:49:52.567Z,102533.88
2018-09-25T05:52:03.757Z,102532.09
2018-09-25T05:54:15.024Z,102542.11
2018-09-25T05:56:26.097Z,102542.09
2018-09-25T05:58:37.489Z,102539.08
2018-09-25T06:00:48.883Z,102538.68
2018-09-25T06:03:00.887Z,102534.41
2018-09-25T06:05:12.620Z,102536.23
2018-09-25T06:07:24.404Z,102532.36
2018-09-25T06:09:35.677Z,102527.63
2018-09-25T06:11:46.904Z,102535.97
2018-09-25T06:13:58.204Z,102536.87
2018-09-25T06:16:09.592Z,102530.77
2018-09-25T06:18:21.787Z,102533.40
2018-09-25T06:20:33.220Z,102530.78
2018-09-25T06:22:44.571Z,102533.86
2018-09-25T06:24:56.424Z,102536.48
2018-09-25T06:27:07.996Z,102539.52
2018-09-25T06:29:19.404Z,102535.17
2018-09-25T06:31:30.801Z,102539.53
2018-09-25T06:33:42.000Z,102536.04
2018-09-25T06:35:53.152Z,102542.14
2018-09-25T06:38:04.469Z,102541.69
2018-09-25T06:40:16.161Z,102544.73
2018-09-25T06:42:27.678Z,102546.50
2018-09-25T06:44:38.960Z,102546.50
2018-09-25T06:46:50.296Z,102543.88
2018-09-25T06:49:01.448Z,102544.31
2018-09-25T06:51:12.554Z,102538.63
2018-09-25T06:53:24.001Z,102533.38
2018-09-25T06:55:35.324Z,102536.42
2018-09-25T06:57:46.644Z,102543.41
2018-09-25T06:59:58.424Z,102546.45
2018-09-25T07:02:09.720Z,102541.20
2018-09-25T07:04:21.090Z,102545.13
2018-09-25T07:06:32.455Z,102535.05
2018-09-25T07:08:44.813Z,102546.40
2018-09-25T07:10:56.398Z,102545.50
2018-09-25T07:13:07.937Z,102554.23
2018-09-25T07:15:19.373Z,102552.02
2018-09-25T07:17:30.939Z,102555.94
2018-09-25T07:19:42.141Z,102556.80
2018-09-25T07:21:53.445Z,102552.84
2018-09-25T07:24:05.379Z,102558.06
2018-09-25T07:26:16.744Z,102561.54
2018-09-25T07:28:28.192Z,102554.11
2018-09-25T07:30:39.404Z,102561.52
2018-09-25T07:32:50.552Z,102561.93
2018-09-25T07:35:01.973Z,102559.24
2018-09-25T07:37:13.046Z,102564.02
2018-09-25T07:39:24.411Z,102565.81
2018-09-25T07:41:36.417Z,102578.47
2018-09-25T07:43:47.593Z,102575.37
2018-09-25T07:45:58.801Z,102574.47
2018-09-25T07:50:38.059Z,102584.00
2018-09-25T07:52:49.300Z,102589.66
2018-09-25T07:55:00.712Z,102587.47
2018-09-25T07:57:13.032Z,102591.80
2018-09-25T07:59:24.393Z,102591.33
2018-09-25T08:01:35.593Z,102589.11
2018-09-25T08:03:46.790Z,102584.25
2018-09-25T08:05:58.161Z,102587.27
2018-09-25T08:08:09.580Z,102600.37
2018-09-25T08:10:20.916Z,102591.12
2018-09-25T08:12:32.401Z,102595.02
2018-09-25T08:14:43.554Z,102596.70
2018-09-25T08:16:54.929Z,102593.63
2018-09-25T08:19:06.124Z,102594.45
2018-09-25T08:21:17.451Z,102595.28
2018-09-25T08:23:29.403Z,102589.52
2018-09-25T08:25:40.935Z,102588.16
2018-09-25T08:27:52.184Z,102587.23
2018-09-25T08:30:03.297Z,102594.19
2018-09-25T08:32:14.691Z,102589.34
2018-09-25T08:34:26.051Z,102597.62
2018-09-25T08:36:37.456Z,102593.64
2018-09-25T08:38:48.877Z,102592.70
2018-09-25T08:41:00.081Z,102597.02
2018-09-25T08:43:11.779Z,102598.27
2018-09-25T08:45:23.047Z,102611.38
2018-09-25T08:47:34.254Z,102601.66
2018-09-25T08:49:46.236Z,102616.08
2018-09-25T08:51:57.782Z,102611.20
2018-09-25T08:54:09.167Z,102613.33
2018-09-25T08:56:20.487Z,102617.25
2018-09-25T08:58:31.890Z,102608.41
2018-09-25T09:00:44.043Z,102610.98
2018-09-25T09:02:55.340Z,102605.64
2018-09-25T09:05:06.469Z,102602.45
2018-09-25T09:07:17.678Z,102608.52
2018-09-25T09:09:28.854Z,102597.91
2018-09-25T09:11:40.044Z,102609.67
2018-09-25T09:13:51.198Z,102608.28
2018-09-25T09:16:02.670Z,102604.69
2018-09-25T09:18:14.177Z,102602.37
2018-09-25T09:20:25.377Z,102609.31
2018-09-25T09:22:36.811Z,102606.12
2018-09-25T09:24:48.099Z,102595.03
2018-09-25T09:26:59.508Z,102599.41
2018-09-25T09:29:10.827Z,102597.58
2018-09-25T09:31:22.096Z,102594.84
2018-09-25T09:33:33.361Z,102607.49
2018-09-25T09:35:44.791Z,102600.32
2018-09-25T09:37:55.937Z,102602.04
2018-09-25T09:40:07.100Z,102605.86
2018-09-25T09:42:18.554Z,102600.98
2018-09-25T09:44:30.072Z,102607.05
2018-09-25T09:46:41.416Z,102608.72
2018-09-25T09:48:52.848Z,102609.94
2018-09-25T09:51:04.036Z,102601.86
2018-09-25T09:53:15.506Z,102599.61
2018-09-25T09:55:26.648Z,102601.23
2018-09-25T09:57:37.812Z,102605.13
2018-09-25T09:59:50.438Z,102603.27
2018-09-25T10:02:01.593Z,102607.13
2018-09-25T10:04:12.962Z,102604.91
2018-09-25T10:06:24.670Z,102600.41
2018-09-25T10:08:36.930Z,102606.52
2018-09-25T10:10:48.058Z,102599.84
2018-09-25T10:12:59.291Z,102605.86
2018-09-25T10:15:10.710Z,102597.43
2018-09-25T10:17:22.708Z,102602.67
2018-09-25T10:19:33.998Z,102602.59
2018-09-25T10:21:45.496Z,102589.30
2018-09-25T10:23:56.707Z,102594.04
2018-09-25T10:26:07.994Z,102601.05
2018-09-25T10:28:19.181Z,102600.63
2018-09-25T10:30:30.491Z,102588.73
2018-09-25T10:32:41.756Z,102584.33
2018-09-25T10:34:53.183Z,102582.53
2018-09-25T10:37:04.552Z,102581.60
2018-09-25T10:39:15.780Z,102579.02
2018-09-25T10:41:27.785Z,102582.11
2018-09-25T10:43:39.131Z,102576.82
2018-09-25T10:45:50.494Z,102576.73
2018-09-25T10:48:01.748Z,102578.94
2018-09-25T10:50:13.205Z,102579.81
2018-09-25T10:52:24.376Z,102565.72
2018-09-25T10:54:35.586Z,102576.73
2018-09-25T10:56:46.815Z,102570.14
2018-09-25T10:58:58.754Z,102567.45
2018-09-25T11:01:10.490Z,102566.38
2018-09-25T11:03:21.968Z,102564.06
2018-09-25T11:05:33.259Z,102559.17
2018-09-25T11:07:44.391Z,102559.09
2018-09-25T11:09:55.798Z,102559.06
2018-09-25T11:12:06.986Z,102560.30
2018-09-25T11:14:18.441Z,102553.66
2018-09-25T11:16:29.856Z,102553.55
2018-09-25T11:18:41.227Z,102549.11
2018-09-25T11:20:53.055Z,102558.28
2018-09-25T11:23:04.560Z,102557.27
2018-09-25T11:25:16.562Z,102553.63
2018-09-25T11:27:28.477Z,102539.94
2018-09-25T11:29:39.833Z,102543.45
2018-09-25T11:31:51.016Z,102545.64
2018-09-25T11:34:02.290Z,102538.13
2018-09-25T11:36:14.173Z,102535.84
2018-09-25T11:38:25.560Z,102529.19
2018-09-25T11:40:36.967Z,102530.92
2018-09-25T11:42:49.445Z,102537.94
2018-09-25T11:45:00.816Z,102528.65
2018-09-25T11:47:12.189Z,102524.56
2018-09-25T11:49:23.398Z,102521.83
2018-09-25T11:51:35.122Z,102521.77
2018-09-25T11:53:47.119Z,102518.25
2018-09-25T11:55:58.284Z,102522.58
2018-09-25T11:58:09.756Z,102516.73
2018-09-25T12:00:21.744Z,102520.20
2018-09-25T12:02:33.107Z,102508.29
2018-09-25T12:04:45.037Z,102514.00
2018-09-25T12:06:56.503Z,102514.87
2018-09-25T12:09:07.768Z,102513.48
2018-09-25T12:11:19.124Z,102515.20
2018-09-25T12:13:30.286Z,102519.52
2018-09-25T12:15:41.407Z,102523.04
2018-09-25T12:17:52.874Z,102515.07
2018-09-25T12:20:04.253Z,102509.27
2018-09-25T12:22:15.420Z,102523.34
2018-09-25T12:24:26.910Z,102514.46
2018-09-25T12:26:38.560Z,102510.04
2018-09-25T12:28:49.914Z,102506.88
2018-09-25T12:31:01.190Z,102510.30
2018-09-25T12:33:12.691Z,102503.16
2018-09-25T12:35:24.169Z,102505.27
2018-09-25T12:37:35.754Z,102507.36
2018-09-25T12:39:46.974Z,102503.77
2018-09-25T12:41:58.480Z,102508.94
2018-09-25T12:44:09.972Z,102507.90
2018-09-25T12:46:21.898Z,102507.77
2018-09-25T12:48:33.261Z,102506.41
2018-09-25T12:50:45.404Z,102511.73
2018-09-25T12:52:57.663Z,102506.41
2018-09-25T12:55:08.949Z,102505.95
2018-09-25T12:57:20.417Z,102498.42
2018-09-25T12:59:31.876Z,102497.00
2018-09-25T13:01:43.255Z,102502.16
2018-09-25T13:03:54.577Z,102491.95
2018-09-25T13:06:05.920Z,102493.14
2018-09-25T13:08:17.040Z,102496.59
2018-09-25T13:10:28.376Z,102501.39
2018-09-25T13:12:39.836Z,102486.30
2018-09-25T13:14:51.080Z,102480.09
2018-09-25T13:17:02.520Z,102487.10
2018-09-25T13:19:14.029Z,102487.00
2018-09-25T13:21:25.212Z,102478.17
2018-09-25T13:23:37.492Z,102479.88
2018-09-25T13:25:48.691Z,102481.13
2018-09-25T13:28:00.142Z,102478.48
2018-09-25T13:30:11.905Z,102477.16
2018-09-25T13:32:23.121Z,102467.95
2018-09-25T13:34:34.664Z,102470.95
2018-09-25T13:36:46.655Z,102470.92
2018-09-25T13:38:57.916Z,102479.21
2018-09-25T13:41:09.186Z,102482.28
2018-09-25T13:43:20.613Z,102460.17
2018-09-25T13:45:31.838Z,102471.16
2018-09-25T13:47:43.035Z,102474.56
2018-09-25T13:49:54.288Z,102469.16
2018-09-25T13:52:05.552Z,102466.50
2018-09-25T13:54:17.612Z,102474.98
2018-09-25T13:56:28.801Z,102473.23
2018-09-25T13:58:40.053Z,102479.83
2018-09-25T14:00:51.549Z,102463.81
2018-09-25T14:03:02.983Z,102448.22
2018-09-25T14:05:14.741Z,102443.34
2018-09-25T14:07:26.104Z,102447.27
2018-09-25T14:09:37.501Z,102438.91
2018-09-25T14:11:49.159Z,102445.95
2018-09-25T14:14:00.418Z,102453.37
2018-09-25T14:16:12.121Z,102442.27
2018-09-25T14:18:23.573Z,102432.55
2018-09-25T14:20:34.812Z,102437.80
2018-09-25T14:22:46.039Z,102433.41
2018-09-25T14:24:57.282Z,102432.12
2018-09-25T14:27:08.622Z,102435.27
2018-09-25T14:29:20.210Z,102429.14
2018-09-25T14:31:31.446Z,102433.49
2018-09-25T14:33:42.684Z,102431.37
2018-09-25T14:35:53.914Z,102437.02
2018-09-25T14:38:05.142Z,102430.69
2018-09-25T14:40:16.576Z,102422.62
2018-09-25T14:42:28.514Z,102414.09
2018-09-25T14:44:39.973Z,102422.46
2018-09-25T14:46:51.153Z,102413.64
2018-09-25T14:49:02.222Z,102411.33
2018-09-25T14:51:13.699Z,102407.72
2018-09-25T14:53:25.465Z,102408.93
2018-09-25T14:55:37.003Z,102413.28
2018-09-25T14:57:48.332Z,102409.27
2018-09-25T14:59:59.568Z,102405.33
2018-09-25T15:02:10.896Z,102407.94
2018-09-25T15:04:22.320Z,102401.80
2018-09-25T15:06:33.604Z,102402.72
2018-09-25T15:08:44.897Z,102403.59
2018-09-25T15:10:56.265Z,102395.63
2018-09-25T15:13:07.661Z,102394.34
2018-09-25T15:15:19.421Z,102396.55
2018-09-25T15:17:30.637Z,102396.55
2018-09-25T15:19:41.878Z,102398.74
2018-09-25T15:21:53.423Z,102392.98
2018-09-25T15:24:04.675Z,102387.72
2018-09-25T15:26:15.907Z,102386.92
2018-09-25T15:28:27.234Z,102391.97
2018-09-25T15:30:38.649Z,102376.98
2018-09-25T15:32:49.675Z,102374.91
2018-09-25T15:35:00.877Z,102371.84
2018-09-25T15:37:12.379Z,102371.02
2018-09-25T15:39:23.764Z,102367.03
2018-09-25T15:41:35.095Z,102371.88
2018-09-25T15:43:47.096Z,102375.89
2018-09-25T15:45:58.551Z,102367.56
2018-09-25T15:48:10.440Z,102370.26
2018-09-25T15:50:21.661Z,102370.26
2018-09-25T15:52:33.225Z,102376.51
2018-09-25T15:54:45.583Z,102369.50
2018-09-25T15:56:56.879Z,102374.39
2018-09-25T15:59:08.116Z,102377.65
2018-09-25T16:01:19.604Z,102376.37
2018-09-25T16:03:30.877Z,102379.47
2018-09-25T16:05:42.226Z,102379.92
2018-09-25T16:07:53.665Z,102378.64
2018-09-25T16:10:04.919Z,102384.89
2018-09-25T16:12:16.160Z,102380.91
2018-09-25T16:14:27.311Z,102377.44
2018-09-25T16:16:38.821Z,102387.73
2018-09-25T16:18:50.241Z,102378.64
2018-09-25T16:21:01.596Z,102378.34
2018-09-25T16:23:13.005Z,102375.39
2018-09-25T16:25:24.457Z,102377.70
2018-09-25T16:27:35.619Z,102377.28
2018-09-25T16:29:47.077Z,102377.85
2018-09-25T16:31:58.669Z,102378.73
2018-09-25T16:34:09.881Z,102373.09
2018-09-25T16:36:21.195Z,102375.36
2018-09-25T16:38:32.449Z,102368.88
2018-09-25T16:40:43.713Z,102372.51
2018-09-25T16:42:55.092Z,102381.44
2018-09-25T16:45:06.782Z,102371.86
2018-09-25T16:47:18.036Z,102373.30
2018-09-25T16:49:29.219Z,102371.17
2018-09-25T16:51:40.678Z,102371.23
2018-09-25T16:53:51.983Z,102367.72
2018-09-25T16:56:03.192Z,102366.02
2018-09-25T16:58:17.303Z,102371.42
2018-09-25T17:00:28.742Z,102368.02
2018-09-25T17:02:40.590Z,102364.67
2018-09-25T17:04:51.850Z,102364.36
2018-09-25T17:07:03.296Z,102365.75
2018-09-25T17:09:15.312Z,102363.62
2018-09-25T17:11:26.731Z,102361.50
2018-09-25T17:13:38.568Z,102365.13
2018-09-25T17:15:50.393Z,102360.84
2018-09-25T17:18:01.638Z,102355.72
2018-09-25T17:20:12.920Z,102357.18
2018-09-25T17:22:24.452Z,102360.80
2018-09-25T17:24:35.737Z,102367.61
2018-09-25T17:26:47.136Z,102364.19
2018-09-25T17:28:58.457Z,102368.32
2018-09-25T17:31:09.907Z,102376.42
2018-09-25T17:33:21.244Z,102377.45
2018-09-25T17:35:32.708Z,102377.16
2018-09-25T17:37:44.093Z,102380.80
2018-09-25T17:39:55.451Z,102378.73
2018-09-25T17:42:06.795Z,102383.72
2018-09-25T17:44:18.208Z,102386.94
2018-09-25T17:46:29.528Z,102387.89
2018-09-25T17:48:40.832Z,102392.82
2018-09-25T17:50:52.073Z,102393.84
2018-09-25T17:53:03.540Z,102400.98
2018-09-25T17:55:14.699Z,102396.72
2018-09-25T17:57:26.004Z,102391.55
2018-09-25T17:59:37.394Z,102396.47
2018-09-25T18:01:48.811Z,102401.84
2018-09-25T18:04:00.121Z,102406.37
2018-09-25T18:06:11.531Z,102405.63
2018-09-25T18:08:22.965Z,102406.64
2018-09-25T18:10:34.368Z,102404.53
2018-09-25T18:12:46.304Z,102410.80
2018-09-25T18:14:57.469Z,102417.02
2018-09-25T18:17:08.857Z,102410.50
2018-09-25T18:19:20.117Z,102412.33
2018-09-25T18:21:31.665Z,102422.48
2018-09-25T18:23:42.921Z,102426.98
2018-09-25T18:25:54.462Z,102429.66
2018-09-25T18:28:05.754Z,102430.19
2018-09-25T18:30:16.972Z,102432.46
2018-09-25T18:32:28.414Z,102429.44
2018-09-25T18:34:39.654Z,102425.12
2018-09-25T18:36:50.953Z,102430.05
2018-09-25T18:39:02.452Z,102442.41
2018-09-25T18:41:13.861Z,102433.28
2018-09-25T18:43:25.073Z,102450.08
2018-09-25T18:45:36.573Z,102448.83
2018-09-25T18:47:48.323Z,102450.22
2018-09-25T18:49:59.503Z,102458.28
2018-09-25T18:52:10.814Z,102456.18
2018-09-25T18:54:22.205Z,102458.93
2018-09-25T18:56:34.353Z,102462.10
2018-09-25T18:58:45.844Z,102463.98
2018-09-25T19:00:57.179Z,102462.75
2018-09-25T19:03:08.740Z,102468.98
2018-09-25T19:05:20.140Z,102461.13
2018-09-25T19:07:31.392Z,102467.36
2018-09-25T19:09:43.561Z,102462.17
2018-09-25T19:11:55.777Z,102467.95
2018-09-25T19:14:07.115Z,102466.26
2018-09-25T19:16:18.326Z,102463.66
2018-09-25T19:18:29.728Z,102469.42
2018-09-25T19:20:41.089Z,102466.80
2018-09-25T19:22:53.076Z,102469.45
2018-09-25T19:25:04.256Z,102465.55
2018-09-25T19:27:15.392Z,102463.78
2018-09-25T19:29:26.663Z,102470.77
2018-09-25T19:31:38.072Z,102472.07
2018-09-25T19:33:49.366Z,102471.63
2018-09-25T19:36:00.984Z,102476.83
2018-09-25T19:38:12.697Z,102475.52
2018-09-25T19:40:24.169Z,102482.97
2018-09-25T19:42:36.294Z,102480.39
2018-09-25T19:44:47.808Z,102479.07
2018-09-25T19:46:59.927Z,102478.14
2018-09-25T19:49:11.491Z,102474.20
2018-09-25T19:51:22.897Z,102479.07
2018-09-25T19:53:34.249Z,102474.67
2018-09-25T19:55:46.407Z,102478.63
2018-09-25T19:57:57.720Z,102478.63
2018-09-25T20:00:08.899Z,102476.89
2018-09-25T20:02:20.042Z,102483.91
2018-09-25T20:04:31.929Z,102478.64
2018-09-25T20:06:43.267Z,102483.05
2018-09-25T20:08:54.593Z,102479.61
2018-09-25T20:11:05.879Z,102484.55
2018-09-25T20:13:17.360Z,102489.03
2018-09-25T20:15:29.022Z,102486.97
2018-09-25T20:17:40.677Z,102478.27
2018-09-25T20:19:52.029Z,102473.89
2018-09-25T20:22:03.281Z,102475.22
2018-09-25T20:24:14.711Z,102482.29
2018-09-25T20:26:25.976Z,102478.81
2018-09-25T20:28:37.518Z,102475.80
2018-09-25T20:30:49.466Z,102474.48
2018-09-25T20:33:01.512Z,102478.81
2018-09-25T20:35:12.869Z,102476.22
2018-09-25T20:37:24.026Z,102481.06
2018-09-25T20:39:35.335Z,102485.02
2018-09-25T20:41:46.648Z,102497.31
2018-09-25T20:43:58.028Z,102498.25
2018-09-25T20:46:09.488Z,102500.45
2018-09-25T20:48:20.807Z,102497.41
2018-09-25T20:50:32.629Z,102496.14
2018-09-25T20:52:44.223Z,102493.96
2018-09-25T20:54:55.513Z,102494.45
2018-09-25T20:57:07.016Z,102483.95
2018-09-25T20:59:18.395Z,102483.56
2018-09-25T21:01:29.684Z,102483.14
2018-09-25T21:03:41.288Z,102481.39
2018-09-25T21:05:52.710Z,102479.25
2018-09-25T21:08:04.078Z,102480.14
2018-09-25T21:10:15.284Z,102483.66
2018-09-25T21:12:26.510Z,102485.89
2018-09-25T21:14:37.648Z,102481.09
2018-09-25T21:16:50.757Z,102480.22
2018-09-25T21:19:02.496Z,102478.09
2018-09-25T21:21:13.883Z,102476.39
2018-09-25T21:23:25.272Z,102474.27
2018-09-25T21:25:36.518Z,102469.88
2018-09-25T21:27:47.935Z,102473.39
2018-09-25T21:29:59.427Z,102471.27
2018-09-25T21:32:12.415Z,102471.78
2018-09-25T21:34:23.860Z,102474.08
2018-09-25T21:36:35.219Z,102467.23
2018-09-25T21:38:46.498Z,102467.36
2018-09-25T21:40:57.912Z,102471.42
2018-09-25T21:43:10.000Z,102471.14
2018-09-25T21:45:21.311Z,102470.38
2018-09-25T21:47:32.472Z,102466.59
2018-09-25T21:49:43.781Z,102471.48
2018-09-25T21:51:55.914Z,102463.17
2018-09-25T21:54:07.043Z,102460.50
2018-09-25T21:56:18.667Z,102456.95
2018-09-25T21:58:30.104Z,102442.45
2018-09-25T22:00:41.462Z,102445.95
2018-09-25T22:02:53.284Z,102440.75
2018-09-25T22:05:04.407Z,102434.67
2018-09-25T22:07:15.791Z,102429.11
2018-09-25T22:09:27.051Z,102434.02
2018-09-25T22:11:38.522Z,102437.58
2018-09-25T22:13:49.859Z,102435.94
2018-09-25T22:16:01.244Z,102432.08
2018-09-25T22:18:12.473Z,102431.23
2018-09-25T22:20:23.621Z,102427.80
2018-09-25T22:22:35.048Z,102431.77
2018-09-25T22:24:47.138Z,102422.19
2018-09-25T22:26:58.213Z,102429.18
2018-09-25T22:29:09.390Z,102426.09
2018-09-25T22:31:20.629Z,102422.19
2018-09-25T22:33:32.115Z,102429.59
2018-09-25T22:35:43.385Z,102418.66
2018-09-25T22:37:54.751Z,102427.37
2018-09-25T22:40:06.196Z,102418.55
2018-09-25T22:42:17.899Z,102418.52
2018-09-25T22:44:29.709Z,102413.20
2018-09-25T22:46:41.053Z,102410.13
2018-09-25T22:48:52.165Z,102402.69
2018-09-25T22:51:03.564Z,102399.59
2018-09-25T22:53:14.971Z,102397.40
2018-09-25T22:55:26.306Z,102388.62
2018-09-25T22:57:37.781Z,102392.16
2018-09-25T22:59:49.241Z,102397.84
2018-09-25T23:02:00.912Z,102386.91
2018-09-25T23:04:12.359Z,102395.66
2018-09-25T23:06:24.285Z,102389.97
2018-09-25T23:08:36.413Z,102387.03
2018-09-25T23:10:47.746Z,102391.55
2018-09-25T23:12:59.212Z,102392.58
2018-09-25T23:15:10.680Z,102396.63
2018-09-25T23:17:22.513Z,102398.41
2018-09-25T23:19:33.888Z,102397.13
2018-09-25T23:21:45.212Z,102386.59
2018-09-25T23:23:57.824Z,102390.94
2018-09-25T23:26:09.338Z,102391.35
2018-09-25T23:28:20.574Z,102384.33
2018-09-25T23:30:31.915Z,102377.78
2018-09-25T23:32:43.327Z,102380.40
2018-09-25T23:34:54.493Z,102380.42
2018-09-25T23:37:05.861Z,102375.22
2018-09-25T23:39:17.113Z,102369.97
2018-09-25T23:41:32.961Z,102379.61
2018-09-25T23:43:44.196Z,102382.25
2018-09-25T23:45:56.610Z,102377.90
2018-09-25T23:48:11.143Z,102374.84
2018-09-25T23:50:22.955Z,102366.56
2018-09-25T23:52:33.186Z,102375.28
2018-09-25T23:54:49.576Z,102377.47
2018-09-25T23:57:06.203Z,102376.15
2018-09-25T23:59:18.071Z,102381.01
